Main page
METAR-TAF:

Airports :

Baia Mare, Romania

Baia Mare Airport

latitude: 47-40N, longitude: 023-35E, elevation: 218 m

Current weather observation

The report was made 38 minutes ago, at 02:00 UTC
Wind 2 kt from the West/Southwest
Temperature
Pressure 1010 hPa
Visibility 10 km or more

METAR: LRBM 260200Z AUTO 24002KT 9999 FEW085/// SCT240/// ///// Q1010

Time: 05:38 (02:38 UTC)

Forecast

The report was made 12 hours and 37 minutes ago, at 14:01 UTC
Forecast valid from 25 at 15 UTC to 25 at 24 UTC
Wind 10 kt from the North/Northwest
Visibility 10 km or more
Scattered clouds at a height of 4500 ft
Temporary
from 25 at 15 UTC to 25 at 17 UTC
Scattered clouds at a height of 4500 ft, Cumulonimbus.
thunderstorm, light rain
Becoming
from 25 at 17 UTC to 25 at 19 UTC
Wind 4 kt from variable directions

TAF: LRBM 251401Z 2515/2524 33010KT 9999 SCT045 TEMPO 2515/2517 -TSRA SCT045CB BECMG 2517/2519 VRB04KT

METAR-TAF

Weather observations and forecasts of more than 4000 airports (METAR and TAF reports).

The available stations are represented by yellow and red dots on the map.

Hover mouse over dot to see the name of the station.

Then click to see weather observations and forecasts.

To change the map : click on the green buttons with a black cross to zoom in, on the green button with a dash to zoom out, or on the green arrows for adjacent maps.


METAR-TAF: